sensor_id;sensor_type;location;lat;lon;timestamp;temperature;humidity
19232;DHT22;9750;48.730;10.294;2023-12-20T00:00:40;6.10;96.30
19232;DHT22;9750;48.730;10.294;2023-12-20T00:03:08;6.10;96.80
19232;DHT22;9750;48.730;10.294;2023-12-20T00:05:36;6.10;96.60
19232;DHT22;9750;48.730;10.294;2023-12-20T00:08:06;6.10;96.70
19232;DHT22;9750;48.730;10.294;2023-12-20T00:10:34;6.10;96.80
19232;DHT22;9750;48.730;10.294;2023-12-20T00:13:01;6.10;96.70
19232;DHT22;9750;48.730;10.294;2023-12-20T00:15:28;6.10;96.80
19232;DHT22;9750;48.730;10.294;2023-12-20T00:17:55;6.10;96.90
19232;DHT22;9750;48.730;10.294;2023-12-20T00:20:24;6.10;96.90
19232;DHT22;9750;48.730;10.294;2023-12-20T00:22:51;6.10;96.90
19232;DHT22;9750;48.730;10.294;2023-12-20T00:25:19;6.10;97.00
19232;DHT22;9750;48.730;10.294;2023-12-20T00:27:46;6.10;96.90
19232;DHT22;9750;48.730;10.294;2023-12-20T00:30:13;6.10;97.30
19232;DHT22;9750;48.730;10.294;2023-12-20T00:32:41;6.10;97.10
19232;DHT22;9750;48.730;10.294;2023-12-20T00:35:11;6.10;97.00
19232;DHT22;9750;48.730;10.294;2023-12-20T00:37:40;6.10;97.00
19232;DHT22;9750;48.730;10.294;2023-12-20T00:40:09;6.10;97.00
19232;DHT22;9750;48.730;10.294;2023-12-20T00:42:36;6.10;96.90
19232;DHT22;9750;48.730;10.294;2023-12-20T00:45:04;6.10;97.00
19232;DHT22;9750;48.730;10.294;2023-12-20T00:47:32;6.10;97.20
19232;DHT22;9750;48.730;10.294;2023-12-20T00:49:59;6.10;97.30
19232;DHT22;9750;48.730;10.294;2023-12-20T00:52:26;6.10;97.40
19232;DHT22;9750;48.730;10.294;2023-12-20T00:54:55;6.10;97.40
19232;DHT22;9750;48.730;10.294;2023-12-20T00:57:22;6.10;97.40
19232;DHT22;9750;48.730;10.294;2023-12-20T00:59:49;6.10;97.50
19232;DHT22;9750;48.730;10.294;2023-12-20T01:02:17;6.10;97.60
19232;DHT22;9750;48.730;10.294;2023-12-20T01:04:44;6.10;97.60
19232;DHT22;9750;48.730;10.294;2023-12-20T01:07:12;6.10;97.60
19232;DHT22;9750;48.730;10.294;2023-12-20T01:09:39;6.10;97.70
19232;DHT22;9750;48.730;10.294;2023-12-20T01:12:08;6.10;97.90
19232;DHT22;9750;48.730;10.294;2023-12-20T01:14:35;6.10;97.90
19232;DHT22;9750;48.730;10.294;2023-12-20T01:17:03;6.10;97.90
19232;DHT22;9750;48.730;10.294;2023-12-20T01:19:30;6.10;97.90
19232;DHT22;9750;48.730;10.294;2023-12-20T01:21:58;6.10;98.00
19232;DHT22;9750;48.730;10.294;2023-12-20T01:24:25;6.20;98.40
19232;DHT22;9750;48.730;10.294;2023-12-20T01:26:52;6.20;98.20
19232;DHT22;9750;48.730;10.294;2023-12-20T01:29:21;6.10;98.20
19232;DHT22;9750;48.730;10.294;2023-12-20T01:31:48;6.20;98.40
19232;DHT22;9750;48.730;10.294;2023-12-20T01:34:15;6.10;98.70
19232;DHT22;9750;48.730;10.294;2023-12-20T01:36:43;6.10;99.00
19232;DHT22;9750;48.730;10.294;2023-12-20T01:39:10;6.10;99.20
19232;DHT22;9750;48.730;10.294;2023-12-20T01:41:37;6.10;99.30
19232;DHT22;9750;48.730;10.294;2023-12-20T01:44:04;6.10;99.40
19232;DHT22;9750;48.730;10.294;2023-12-20T01:46:33;6.10;99.80
19232;DHT22;9750;48.730;10.294;2023-12-20T01:49:01;6.20;99.70
19232;DHT22;9750;48.730;10.294;2023-12-20T01:51:28;6.20;99.80
19232;DHT22;9750;48.730;10.294;2023-12-20T01:53:57;6.20;99.90
19232;DHT22;9750;48.730;10.294;2023-12-20T01:56:25;6.20;99.90
19232;DHT22;9750;48.730;10.294;2023-12-20T01:58:52;6.20;99.90
19232;DHT22;9750;48.730;10.294;2023-12-20T02:01:20;6.20;99.90
19232;DHT22;9750;48.730;10.294;2023-12-20T02:03:49;6.20;99.90
19232;DHT22;9750;48.730;10.294;2023-12-20T02:09:29;6.20;99.90
19232;DHT22;9750;48.730;10.294;2023-12-20T02:11:56;6.20;99.90
19232;DHT22;9750;48.730;10.294;2023-12-20T02:14:23;6.20;99.90
19232;DHT22;9750;48.730;10.294;2023-12-20T02:16:50;6.20;99.90
19232;DHT22;9750;48.730;10.294;2023-12-20T02:19:20;6.20;99.90
19232;DHT22;9750;48.730;10.294;2023-12-20T02:21:49;6.20;99.90
19232;DHT22;9750;48.730;10.294;2023-12-20T02:24:16;6.20;99.90
19232;DHT22;9750;48.730;10.294;2023-12-20T02:26:44;6.30;99.90
19232;DHT22;9750;48.730;10.294;2023-12-20T02:29:11;6.30;99.90
19232;DHT22;9750;48.730;10.294;2023-12-20T02:31:39;6.30;99.90
19232;DHT22;9750;48.730;10.294;2023-12-20T02:34:06;6.30;99.90
19232;DHT22;9750;48.730;10.294;2023-12-20T02:36:33;6.30;99.90
19232;DHT22;9750;48.730;10.294;2023-12-20T02:39:02;6.30;99.90
19232;DHT22;9750;48.730;10.294;2023-12-20T02:41:30;6.40;99.90
19232;DHT22;9750;48.730;10.294;2023-12-20T02:43:57;6.40;99.90
19232;DHT22;9750;48.730;10.294;2023-12-20T02:46:24;6.40;99.90
19232;DHT22;9750;48.730;10.294;2023-12-20T02:48:51;6.50;99.90
19232;DHT22;9750;48.730;10.294;2023-12-20T02:51:18;6.50;99.90
19232;DHT22;9750;48.730;10.294;2023-12-20T02:53:46;6.40;99.90
19232;DHT22;9750;48.730;10.294;2023-12-20T02:56:14;6.40;99.90
19232;DHT22;9750;48.730;10.294;2023-12-20T02:58:42;6.40;99.90
19232;DHT22;9750;48.730;10.294;2023-12-20T03:01:09;6.30;99.90
19232;DHT22;9750;48.730;10.294;2023-12-20T03:03:36;6.30;99.90
19232;DHT22;9750;48.730;10.294;2023-12-20T03:06:04;6.30;99.90
19232;DHT22;9750;48.730;10.294;2023-12-20T03:08:31;6.30;99.90
19232;DHT22;9750;48.730;10.294;2023-12-20T03:10:59;6.30;99.90
19232;DHT22;9750;48.730;10.294;2023-12-20T03:13:28;6.20;99.90
19232;DHT22;9750;48.730;10.294;2023-12-20T03:16:27;6.20;99.90
19232;DHT22;9750;48.730;10.294;2023-12-20T03:18:54;6.20;99.90
19232;DHT22;9750;48.730;10.294;2023-12-20T03:21:21;6.20;99.90
19232;DHT22;9750;48.730;10.294;2023-12-20T03:23:49;6.30;99.90
19232;DHT22;9750;48.730;10.294;2023-12-20T03:26:16;6.30;99.90
19232;DHT22;9750;48.730;10.294;2023-12-20T03:28:59;6.30;99.90
19232;DHT22;9750;48.730;10.294;2023-12-20T03:31:26;6.30;99.90
19232;DHT22;9750;48.730;10.294;2023-12-20T03:33:54;6.30;99.90
19232;DHT22;9750;48.730;10.294;2023-12-20T03:36:21;6.30;99.90
19232;DHT22;9750;48.730;10.294;2023-12-20T03:38:48;6.30;99.90
19232;DHT22;9750;48.730;10.294;2023-12-20T03:41:15;6.30;99.90
19232;DHT22;9750;48.730;10.294;2023-12-20T03:43:43;6.30;99.90
19232;DHT22;9750;48.730;10.294;2023-12-20T03:46:11;6.30;99.90
19232;DHT22;9750;48.730;10.294;2023-12-20T03:48:39;6.20;99.90
19232;DHT22;9750;48.730;10.294;2023-12-20T03:51:06;6.20;99.90
19232;DHT22;9750;48.730;10.294;2023-12-20T03:53:33;6.20;99.90
19232;DHT22;9750;48.730;10.294;2023-12-20T03:56:00;6.30;99.90
19232;DHT22;9750;48.730;10.294;2023-12-20T03:58:28;6.30;99.90
19232;DHT22;9750;48.730;10.294;2023-12-20T04:00:55;6.30;99.90
19232;DHT22;9750;48.730;10.294;2023-12-20T04:03:24;6.30;99.90
19232;DHT22;9750;48.730;10.294;2023-12-20T04:05:51;6.30;99.90
19232;DHT22;9750;48.730;10.294;2023-12-20T04:08:18;6.30;99.90
19232;DHT22;9750;48.730;10.294;2023-12-20T04:10:55;6.30;99.90
19232;DHT22;9750;48.730;10.294;2023-12-20T04:13:22;6.30;99.90
19232;DHT22;9750;48.730;10.294;2023-12-20T04:15:49;6.30;99.90
19232;DHT22;9750;48.730;10.294;2023-12-20T04:18:16;6.20;99.90
19232;DHT22;9750;48.730;10.294;2023-12-20T04:20:45;6.20;99.90
19232;DHT22;9750;48.730;10.294;2023-12-20T04:23:12;6.30;99.90
19232;DHT22;9750;48.730;10.294;2023-12-20T04:29:02;6.20;99.90
19232;DHT22;9750;48.730;10.294;2023-12-20T04:31:29;6.20;99.90
19232;DHT22;9750;48.730;10.294;2023-12-20T04:33:56;6.10;99.90
19232;DHT22;9750;48.730;10.294;2023-12-20T04:36:25;6.10;99.90
19232;DHT22;9750;48.730;10.294;2023-12-20T04:38:55;6.00;99.90
19232;DHT22;9750;48.730;10.294;2023-12-20T04:41:23;6.00;99.90
19232;DHT22;9750;48.730;10.294;2023-12-20T04:43:50;5.90;99.90
19232;DHT22;9750;48.730;10.294;2023-12-20T04:46:17;5.80;99.90
19232;DHT22;9750;48.730;10.294;2023-12-20T04:48:44;5.80;99.90
19232;DHT22;9750;48.730;10.294;2023-12-20T04:51:12;5.90;99.90
19232;DHT22;9750;48.730;10.294;2023-12-20T04:53:40;5.90;99.90
19232;DHT22;9750;48.730;10.294;2023-12-20T04:56:08;5.90;99.90
19232;DHT22;9750;48.730;10.294;2023-12-20T04:58:35;5.90;99.90
19232;DHT22;9750;48.730;10.294;2023-12-20T05:01:03;5.90;99.90
19232;DHT22;9750;48.730;10.294;2023-12-20T05:03:30;5.80;99.90
19232;DHT22;9750;48.730;10.294;2023-12-20T05:05:57;5.80;99.90
19232;DHT22;9750;48.730;10.294;2023-12-20T05:08:25;5.70;99.90
19232;DHT22;9750;48.730;10.294;2023-12-20T05:10:54;5.70;99.90
19232;DHT22;9750;48.730;10.294;2023-12-20T05:13:22;5.70;99.90
19232;DHT22;9750;48.730;10.294;2023-12-20T05:15:49;5.60;99.90
19232;DHT22;9750;48.730;10.294;2023-12-20T05:18:16;5.60;99.90
19232;DHT22;9750;48.730;10.294;2023-12-20T05:20:43;5.60;99.90
19232;DHT22;9750;48.730;10.294;2023-12-20T05:23:12;5.60;99.90
19232;DHT22;9750;48.730;10.294;2023-12-20T05:25:39;5.50;99.90
19232;DHT22;9750;48.730;10.294;2023-12-20T05:28:08;5.50;99.90
19232;DHT22;9750;48.730;10.294;2023-12-20T05:30:35;5.40;99.90
19232;DHT22;9750;48.730;10.294;2023-12-20T05:33:03;5.40;99.90
19232;DHT22;9750;48.730;10.294;2023-12-20T05:35:30;5.40;99.90
19232;DHT22;9750;48.730;10.294;2023-12-20T05:37:57;5.40;99.90
19232;DHT22;9750;48.730;10.294;2023-12-20T05:40:25;5.40;99.90
19232;DHT22;9750;48.730;10.294;2023-12-20T05:42:52;5.40;99.90
19232;DHT22;9750;48.730;10.294;2023-12-20T05:45:21;5.40;99.90
19232;DHT22;9750;48.730;10.294;2023-12-20T05:47:48;5.40;99.90
19232;DHT22;9750;48.730;10.294;2023-12-20T05:50:15;5.30;99.90
19232;DHT22;9750;48.730;10.294;2023-12-20T05:52:43;5.30;99.90
19232;DHT22;9750;48.730;10.294;2023-12-20T05:55:10;5.40;99.90
19232;DHT22;9750;48.730;10.294;2023-12-20T05:57:37;5.40;99.90
19232;DHT22;9750;48.730;10.294;2023-12-20T06:00:05;5.50;99.90
19232;DHT22;9750;48.730;10.294;2023-12-20T06:02:35;5.50;99.90
19232;DHT22;9750;48.730;10.294;2023-12-20T06:05:03;5.50;99.90
19232;DHT22;9750;48.730;10.294;2023-12-20T06:07:30;5.50;99.90
19232;DHT22;9750;48.730;10.294;2023-12-20T06:09:58;5.50;99.90
19232;DHT22;9750;48.730;10.294;2023-12-20T06:12:25;5.50;99.90
19232;DHT22;9750;48.730;10.294;2023-12-20T06:14:54;5.50;99.90
19232;DHT22;9750;48.730;10.294;2023-12-20T06:17:23;5.60;99.90
19232;DHT22;9750;48.730;10.294;2023-12-20T06:19:51;5.50;99.90
19232;DHT22;9750;48.730;10.294;2023-12-20T06:22:20;5.50;99.90
19232;DHT22;9750;48.730;10.294;2023-12-20T06:24:47;5.50;99.90
19232;DHT22;9750;48.730;10.294;2023-12-20T06:27:14;5.50;99.90
19232;DHT22;9750;48.730;10.294;2023-12-20T06:29:41;5.50;99.90
19232;DHT22;9750;48.730;10.294;2023-12-20T06:32:10;5.50;99.90
19232;DHT22;9750;48.730;10.294;2023-12-20T06:34:38;5.50;99.90
19232;DHT22;9750;48.730;10.294;2023-12-20T06:37:09;5.50;99.90
19232;DHT22;9750;48.730;10.294;2023-12-20T06:39:36;5.50;99.90
19232;DHT22;9750;48.730;10.294;2023-12-20T06:42:04;5.50;99.90
19232;DHT22;9750;48.730;10.294;2023-12-20T06:44:31;5.40;99.90
19232;DHT22;9750;48.730;10.294;2023-12-20T06:46:58;5.40;99.90
19232;DHT22;9750;48.730;10.294;2023-12-20T06:49:26;5.40;99.90
19232;DHT22;9750;48.730;10.294;2023-12-20T06:51:53;5.50;99.90
19232;DHT22;9750;48.730;10.294;2023-12-20T06:54:22;5.50;99.90
19232;DHT22;9750;48.730;10.294;2023-12-20T06:56:49;5.50;99.90
19232;DHT22;9750;48.730;10.294;2023-12-20T06:59:16;5.60;99.90
19232;DHT22;9750;48.730;10.294;2023-12-20T07:01:48;5.60;99.90
19232;DHT22;9750;48.730;10.294;2023-12-20T07:04:29;5.50;99.90
19232;DHT22;9750;48.730;10.294;2023-12-20T07:07:00;5.60;99.90
19232;DHT22;9750;48.730;10.294;2023-12-20T07:09:29;5.60;99.90
19232;DHT22;9750;48.730;10.294;2023-12-20T07:11:56;5.60;99.90
19232;DHT22;9750;48.730;10.294;2023-12-20T07:14:24;5.60;99.90
19232;DHT22;9750;48.730;10.294;2023-12-20T07:16:52;5.60;99.90
19232;DHT22;9750;48.730;10.294;2023-12-20T07:19:19;5.60;99.90
19232;DHT22;9750;48.730;10.294;2023-12-20T07:21:46;5.60;99.90
19232;DHT22;9750;48.730;10.294;2023-12-20T07:24:14;5.60;99.90
19232;DHT22;9750;48.730;10.294;2023-12-20T07:26:42;5.70;99.90
19232;DHT22;9750;48.730;10.294;2023-12-20T07:29:10;5.70;99.90
19232;DHT22;9750;48.730;10.294;2023-12-20T07:31:37;5.70;99.90
19232;DHT22;9750;48.730;10.294;2023-12-20T07:34:04;5.80;99.90
19232;DHT22;9750;48.730;10.294;2023-12-20T07:36:32;5.80;99.90
19232;DHT22;9750;48.730;10.294;2023-12-20T07:38:59;5.80;99.90
19232;DHT22;9750;48.730;10.294;2023-12-20T07:41:26;5.80;99.90
19232;DHT22;9750;48.730;10.294;2023-12-20T07:43:55;5.90;99.90
19232;DHT22;9750;48.730;10.294;2023-12-20T07:46:23;5.90;99.90
19232;DHT22;9750;48.730;10.294;2023-12-20T07:48:50;5.90;99.90
19232;DHT22;9750;48.730;10.294;2023-12-20T07:51:17;5.90;99.90
19232;DHT22;9750;48.730;10.294;2023-12-20T07:53:46;5.90;99.90
19232;DHT22;9750;48.730;10.294;2023-12-20T07:56:14;5.90;99.90
19232;DHT22;9750;48.730;10.294;2023-12-20T07:58:42;5.90;99.90
19232;DHT22;9750;48.730;10.294;2023-12-20T08:01:11;5.90;99.90
19232;DHT22;9750;48.730;10.294;2023-12-20T08:03:38;5.90;99.90
19232;DHT22;9750;48.730;10.294;2023-12-20T08:06:06;5.90;99.90
19232;DHT22;9750;48.730;10.294;2023-12-20T08:08:33;6.00;99.90
19232;DHT22;9750;48.730;10.294;2023-12-20T08:11:00;6.10;99.90
19232;DHT22;9750;48.730;10.294;2023-12-20T08:13:28;6.00;99.90
19232;DHT22;9750;48.730;10.294;2023-12-20T08:15:56;6.00;99.90
19232;DHT22;9750;48.730;10.294;2023-12-20T08:18:24;6.00;99.90
19232;DHT22;9750;48.730;10.294;2023-12-20T08:20:52;6.00;99.90
19232;DHT22;9750;48.730;10.294;2023-12-20T08:23:36;6.00;99.90
19232;DHT22;9750;48.730;10.294;2023-12-20T08:26:05;6.00;99.90
19232;DHT22;9750;48.730;10.294;2023-12-20T08:28:32;6.00;99.90
19232;DHT22;9750;48.730;10.294;2023-12-20T08:31:00;6.00;99.90
19232;DHT22;9750;48.730;10.294;2023-12-20T08:33:41;6.00;99.90
19232;DHT22;9750;48.730;10.294;2023-12-20T08:36:11;6.00;99.90
19232;DHT22;9750;48.730;10.294;2023-12-20T08:38:38;6.10;99.90
19232;DHT22;9750;48.730;10.294;2023-12-20T08:41:11;6.10;99.90
19232;DHT22;9750;48.730;10.294;2023-12-20T08:43:56;6.20;99.90
19232;DHT22;9750;48.730;10.294;2023-12-20T08:46:26;6.30;99.90
19232;DHT22;9750;48.730;10.294;2023-12-20T08:48:57;6.40;99.90
19232;DHT22;9750;48.730;10.294;2023-12-20T08:51:27;6.40;99.90
19232;DHT22;9750;48.730;10.294;2023-12-20T08:53:55;6.40;99.90
19232;DHT22;9750;48.730;10.294;2023-12-20T08:56:22;6.40;99.90
19232;DHT22;9750;48.730;10.294;2023-12-20T08:58:49;6.30;99.90
19232;DHT22;9750;48.730;10.294;2023-12-20T09:01:17;6.30;99.90
19232;DHT22;9750;48.730;10.294;2023-12-20T09:03:44;6.30;99.90
19232;DHT22;9750;48.730;10.294;2023-12-20T09:06:13;6.30;99.90
19232;DHT22;9750;48.730;10.294;2023-12-20T09:08:40;6.30;99.90
19232;DHT22;9750;48.730;10.294;2023-12-20T09:11:07;6.30;99.90
19232;DHT22;9750;48.730;10.294;2023-12-20T09:13:35;6.30;99.90
19232;DHT22;9750;48.730;10.294;2023-12-20T09:16:03;6.30;99.90
19232;DHT22;9750;48.730;10.294;2023-12-20T09:18:30;6.30;99.90
19232;DHT22;9750;48.730;10.294;2023-12-20T09:20:58;6.30;99.90
19232;DHT22;9750;48.730;10.294;2023-12-20T09:23:27;6.30;99.90
19232;DHT22;9750;48.730;10.294;2023-12-20T09:25:54;6.30;99.90
19232;DHT22;9750;48.730;10.294;2023-12-20T09:28:22;6.30;99.90
19232;DHT22;9750;48.730;10.294;2023-12-20T09:30:49;6.20;99.90
19232;DHT22;9750;48.730;10.294;2023-12-20T09:33:16;6.20;99.90
19232;DHT22;9750;48.730;10.294;2023-12-20T09:35:44;6.20;99.90
19232;DHT22;9750;48.730;10.294;2023-12-20T09:38:11;6.10;99.90
19232;DHT22;9750;48.730;10.294;2023-12-20T09:40:43;6.00;99.90
19232;DHT22;9750;48.730;10.294;2023-12-20T09:43:13;6.00;99.90
19232;DHT22;9750;48.730;10.294;2023-12-20T09:45:42;5.90;99.90
19232;DHT22;9750;48.730;10.294;2023-12-20T09:48:11;5.90;99.90
19232;DHT22;9750;48.730;10.294;2023-12-20T09:50:40;5.90;99.90
19232;DHT22;9750;48.730;10.294;2023-12-20T09:53:08;5.90;99.90
19232;DHT22;9750;48.730;10.294;2023-12-20T09:55:36;5.90;99.90
19232;DHT22;9750;48.730;10.294;2023-12-20T09:58:06;5.90;99.90
19232;DHT22;9750;48.730;10.294;2023-12-20T10:00:34;5.80;99.90
19232;DHT22;9750;48.730;10.294;2023-12-20T10:03:02;5.80;99.90
19232;DHT22;9750;48.730;10.294;2023-12-20T10:05:32;5.80;99.90
19232;DHT22;9750;48.730;10.294;2023-12-20T10:08:00;5.90;99.90
19232;DHT22;9750;48.730;10.294;2023-12-20T10:10:28;6.00;99.90
19232;DHT22;9750;48.730;10.294;2023-12-20T10:13:02;5.90;99.90
19232;DHT22;9750;48.730;10.294;2023-12-20T10:15:32;5.90;99.90
19232;DHT22;9750;48.730;10.294;2023-12-20T10:17:59;5.90;99.90
19232;DHT22;9750;48.730;10.294;2023-12-20T10:20:27;6.10;99.90
19232;DHT22;9750;48.730;10.294;2023-12-20T10:22:56;6.00;99.90
19232;DHT22;9750;48.730;10.294;2023-12-20T10:25:23;5.90;99.90
19232;DHT22;9750;48.730;10.294;2023-12-20T10:28:09;5.80;99.90
19232;DHT22;9750;48.730;10.294;2023-12-20T10:30:39;5.70;98.90
19232;DHT22;9750;48.730;10.294;2023-12-20T10:33:07;5.60;99.40
19232;DHT22;9750;48.730;10.294;2023-12-20T10:35:34;5.60;99.50
19232;DHT22;9750;48.730;10.294;2023-12-20T10:38:04;5.60;99.70
19232;DHT22;9750;48.730;10.294;2023-12-20T10:40:35;5.70;99.70
19232;DHT22;9750;48.730;10.294;2023-12-20T10:43:04;5.70;99.10
19232;DHT22;9750;48.730;10.294;2023-12-20T10:45:31;5.80;99.20
19232;DHT22;9750;48.730;10.294;2023-12-20T10:48:02;5.80;98.40
19232;DHT22;9750;48.730;10.294;2023-12-20T10:50:30;5.90;98.30
19232;DHT22;9750;48.730;10.294;2023-12-20T10:52:57;6.00;98.60
19232;DHT22;9750;48.730;10.294;2023-12-20T10:55:25;6.10;98.50
19232;DHT22;9750;48.730;10.294;2023-12-20T10:57:57;6.20;98.40
19232;DHT22;9750;48.730;10.294;2023-12-20T11:00:28;6.20;97.90
19232;DHT22;9750;48.730;10.294;2023-12-20T11:03:00;6.10;98.20
19232;DHT22;9750;48.730;10.294;2023-12-20T11:05:34;6.20;98.20
19232;DHT22;9750;48.730;10.294;2023-12-20T11:08:08;6.20;98.20
19232;DHT22;9750;48.730;10.294;2023-12-20T11:10:43;6.20;98.20
19232;DHT22;9750;48.730;10.294;2023-12-20T11:13:17;6.10;98.20
19232;DHT22;9750;48.730;10.294;2023-12-20T11:15:46;6.00;98.40
19232;DHT22;9750;48.730;10.294;2023-12-20T11:18:15;6.00;98.00
19232;DHT22;9750;48.730;10.294;2023-12-20T11:20:42;6.00;98.00
19232;DHT22;9750;48.730;10.294;2023-12-20T11:23:13;6.00;98.10
19232;DHT22;9750;48.730;10.294;2023-12-20T11:25:53;6.00;97.90
19232;DHT22;9750;48.730;10.294;2023-12-20T11:28:22;6.10;97.90
19232;DHT22;9750;48.730;10.294;2023-12-20T11:30:51;6.10;97.70
19232;DHT22;9750;48.730;10.294;2023-12-20T11:33:23;6.10;97.80
19232;DHT22;9750;48.730;10.294;2023-12-20T11:35:51;6.00;98.10
19232;DHT22;9750;48.730;10.294;2023-12-20T11:38:20;6.10;98.00
19232;DHT22;9750;48.730;10.294;2023-12-20T11:40:49;6.20;98.10
19232;DHT22;9750;48.730;10.294;2023-12-20T11:43:30;6.10;97.70
19232;DHT22;9750;48.730;10.294;2023-12-20T11:46:03;6.10;97.60
19232;DHT22;9750;48.730;10.294;2023-12-20T11:48:34;6.10;97.40
19232;DHT22;9750;48.730;10.294;2023-12-20T11:51:02;6.00;97.20
19232;DHT22;9750;48.730;10.294;2023-12-20T11:53:29;6.00;97.80
19232;DHT22;9750;48.730;10.294;2023-12-20T11:56:16;5.90;97.90
19232;DHT22;9750;48.730;10.294;2023-12-20T11:58:43;6.00;98.00
19232;DHT22;9750;48.730;10.294;2023-12-20T12:01:11;6.00;98.10
19232;DHT22;9750;48.730;10.294;2023-12-20T12:03:40;6.10;97.90
19232;DHT22;9750;48.730;10.294;2023-12-20T12:08:58;6.10;97.70
19232;DHT22;9750;48.730;10.294;2023-12-20T12:11:26;6.10;97.60
19232;DHT22;9750;48.730;10.294;2023-12-20T12:13:53;6.20;97.20
19232;DHT22;9750;48.730;10.294;2023-12-20T12:16:20;6.00;97.20
19232;DHT22;9750;48.730;10.294;2023-12-20T12:18:56;5.90;97.20
19232;DHT22;9750;48.730;10.294;2023-12-20T12:21:23;5.90;97.40
19232;DHT22;9750;48.730;10.294;2023-12-20T12:23:51;5.90;97.50
19232;DHT22;9750;48.730;10.294;2023-12-20T12:26:19;5.90;96.70
19232;DHT22;9750;48.730;10.294;2023-12-20T12:28:46;6.00;96.50
19232;DHT22;9750;48.730;10.294;2023-12-20T12:31:14;6.00;95.60
19232;DHT22;9750;48.730;10.294;2023-12-20T12:33:42;5.90;95.50
19232;DHT22;9750;48.730;10.294;2023-12-20T12:36:12;5.90;95.90
19232;DHT22;9750;48.730;10.294;2023-12-20T12:38:41;5.80;95.10
19232;DHT22;9750;48.730;10.294;2023-12-20T12:41:09;5.70;95.20
19232;DHT22;9750;48.730;10.294;2023-12-20T12:43:36;5.60;95.70
19232;DHT22;9750;48.730;10.294;2023-12-20T12:46:04;5.70;96.00
19232;DHT22;9750;48.730;10.294;2023-12-20T12:48:31;5.80;95.60
19232;DHT22;9750;48.730;10.294;2023-12-20T12:51:07;5.80;95.40
19232;DHT22;9750;48.730;10.294;2023-12-20T12:53:40;5.80;95.10
19232;DHT22;9750;48.730;10.294;2023-12-20T12:56:09;5.80;95.00
19232;DHT22;9750;48.730;10.294;2023-12-20T12:58:43;5.80;95.30
19232;DHT22;9750;48.730;10.294;2023-12-20T13:01:12;5.80;94.90
19232;DHT22;9750;48.730;10.294;2023-12-20T13:03:42;5.80;95.10
19232;DHT22;9750;48.730;10.294;2023-12-20T13:06:10;5.70;94.60
19232;DHT22;9750;48.730;10.294;2023-12-20T13:08:45;5.70;94.70
19232;DHT22;9750;48.730;10.294;2023-12-20T13:11:24;5.60;94.90
19232;DHT22;9750;48.730;10.294;2023-12-20T13:13:58;5.60;95.20
19232;DHT22;9750;48.730;10.294;2023-12-20T13:16:30;5.50;95.30
19232;DHT22;9750;48.730;10.294;2023-12-20T13:19:06;5.70;95.60
19232;DHT22;9750;48.730;10.294;2023-12-20T13:21:36;5.60;95.40
19232;DHT22;9750;48.730;10.294;2023-12-20T13:24:08;5.60;95.50
19232;DHT22;9750;48.730;10.294;2023-12-20T13:26:44;5.50;95.70
19232;DHT22;9750;48.730;10.294;2023-12-20T13:29:14;5.60;95.70
19232;DHT22;9750;48.730;10.294;2023-12-20T13:35:14;5.60;95.70
19232;DHT22;9750;48.730;10.294;2023-12-20T13:37:41;5.50;95.90
19232;DHT22;9750;48.730;10.294;2023-12-20T13:40:11;5.60;96.00
19232;DHT22;9750;48.730;10.294;2023-12-20T13:42:39;5.60;95.90
19232;DHT22;9750;48.730;10.294;2023-12-20T13:45:07;5.70;95.80
19232;DHT22;9750;48.730;10.294;2023-12-20T13:51:58;5.70;95.90
19232;DHT22;9750;48.730;10.294;2023-12-20T13:54:47;5.80;95.80
19232;DHT22;9750;48.730;10.294;2023-12-20T14:00:34;5.90;95.60
19232;DHT22;9750;48.730;10.294;2023-12-20T14:03:13;6.00;95.80
19232;DHT22;9750;48.730;10.294;2023-12-20T14:06:56;6.00;95.30
19232;DHT22;9750;48.730;10.294;2023-12-20T14:08:48;6.00;95.70
19232;DHT22;9750;48.730;10.294;2023-12-20T14:11:23;6.00;95.30
19232;DHT22;9750;48.730;10.294;2023-12-20T14:14:12;6.00;95.30
19232;DHT22;9750;48.730;10.294;2023-12-20T14:16:58;5.90;95.00
19232;DHT22;9750;48.730;10.294;2023-12-20T14:23:11;5.80;95.00
19232;DHT22;9750;48.730;10.294;2023-12-20T14:25:57;5.80;94.80
19232;DHT22;9750;48.730;10.294;2023-12-20T14:28:48;5.80;95.20
19232;DHT22;9750;48.730;10.294;2023-12-20T14:35:10;5.80;95.50
19232;DHT22;9750;48.730;10.294;2023-12-20T14:47:38;5.70;95.60
19232;DHT22;9750;48.730;10.294;2023-12-20T14:50:06;5.60;95.80
19232;DHT22;9750;48.730;10.294;2023-12-20T14:57:55;5.60;96.20
19232;DHT22;9750;48.730;10.294;2023-12-20T15:00:23;5.60;96.10
19232;DHT22;9750;48.730;10.294;2023-12-20T15:02:51;5.60;96.10
19232;DHT22;9750;48.730;10.294;2023-12-20T15:05:21;5.60;96.20
19232;DHT22;9750;48.730;10.294;2023-12-20T15:07:50;5.60;96.20
19232;DHT22;9750;48.730;10.294;2023-12-20T15:10:18;5.50;96.00
19232;DHT22;9750;48.730;10.294;2023-12-20T15:12:46;5.60;96.10
19232;DHT22;9750;48.730;10.294;2023-12-20T15:15:18;5.60;96.10
19232;DHT22;9750;48.730;10.294;2023-12-20T15:17:47;5.60;96.00
19232;DHT22;9750;48.730;10.294;2023-12-20T15:20:15;5.60;96.00
19232;DHT22;9750;48.730;10.294;2023-12-20T15:22:45;5.60;96.00
19232;DHT22;9750;48.730;10.294;2023-12-20T15:28:43;5.60;95.90
19232;DHT22;9750;48.730;10.294;2023-12-20T15:31:14;5.50;95.80
19232;DHT22;9750;48.730;10.294;2023-12-20T15:33:42;5.60;95.90
19232;DHT22;9750;48.730;10.294;2023-12-20T15:36:10;5.50;96.00
19232;DHT22;9750;48.730;10.294;2023-12-20T15:38:39;5.40;96.10
19232;DHT22;9750;48.730;10.294;2023-12-20T15:41:08;5.40;96.00
19232;DHT22;9750;48.730;10.294;2023-12-20T15:43:51;5.40;96.10
19232;DHT22;9750;48.730;10.294;2023-12-20T15:46:50;5.40;96.10
19232;DHT22;9750;48.730;10.294;2023-12-20T15:49:18;5.40;96.30
19232;DHT22;9750;48.730;10.294;2023-12-20T15:51:45;5.40;96.40
19232;DHT22;9750;48.730;10.294;2023-12-20T15:54:12;5.30;96.50
19232;DHT22;9750;48.730;10.294;2023-12-20T15:56:40;5.30;96.60
19232;DHT22;9750;48.730;10.294;2023-12-20T15:59:12;5.30;96.60
19232;DHT22;9750;48.730;10.294;2023-12-20T16:01:39;5.30;96.70
19232;DHT22;9750;48.730;10.294;2023-12-20T16:04:06;5.30;96.60
19232;DHT22;9750;48.730;10.294;2023-12-20T16:06:33;5.30;96.70
19232;DHT22;9750;48.730;10.294;2023-12-20T16:09:02;5.30;96.70
19232;DHT22;9750;48.730;10.294;2023-12-20T16:11:29;5.40;96.80
19232;DHT22;9750;48.730;10.294;2023-12-20T16:13:56;5.30;96.70
19232;DHT22;9750;48.730;10.294;2023-12-20T16:16:25;5.30;96.90
19232;DHT22;9750;48.730;10.294;2023-12-20T16:18:53;5.30;97.00
19232;DHT22;9750;48.730;10.294;2023-12-20T16:21:20;5.30;97.20
19232;DHT22;9750;48.730;10.294;2023-12-20T16:23:47;5.20;97.50
19232;DHT22;9750;48.730;10.294;2023-12-20T16:26:14;5.20;97.70
19232;DHT22;9750;48.730;10.294;2023-12-20T16:28:42;5.20;97.80
19232;DHT22;9750;48.730;10.294;2023-12-20T16:31:09;5.20;97.80
19232;DHT22;9750;48.730;10.294;2023-12-20T16:33:38;5.20;97.90
19232;DHT22;9750;48.730;10.294;2023-12-20T16:36:25;5.10;98.20
19232;DHT22;9750;48.730;10.294;2023-12-20T16:38:53;5.10;98.40
19232;DHT22;9750;48.730;10.294;2023-12-20T16:41:21;5.10;98.50
19232;DHT22;9750;48.730;10.294;2023-12-20T16:43:48;5.00;98.70